CDT,Max TemperatureF,Mean TemperatureF,Min TemperatureF,Max Dew PointF,MeanDew PointF,Min DewpointF,Max Humidity, Mean Humidity, Min Humidity, Max Sea Level PressureIn, Mean Sea Level PressureIn, Min Sea Level PressureIn, Max VisibilityMiles, Mean VisibilityMiles, Min VisibilityMiles, Max Wind SpeedMPH, Mean Wind SpeedMPH, Max Gust SpeedMPH,PrecipitationIn, CloudCover, Events, WindDirDegrees
2013-10-1,79,64,48,58,54,48,97,65,42,29.95,29.87,29.75,10,10,10,17,6,24,0.00,0,,66
2013-10-2,84,71,58,65,61,58,93,73,47,29.88,29.81,29.72,10,10,8,16,5,21,0.00,2,,150
2013-10-3,85,70,55,65,61,52,100,80,34,29.75,29.67,29.58,10,8,5,14,8,22,0.00,4,,116
2013-10-4,69,56,43,61,51,31,100,83,42,30.08,29.71,29.54,10,6,0,29,7,38,0.01,3,Fog,274
2013-10-5,57,48,38,32,29,26,70,50,34,30.12,30.07,30.01,10,10,10,29,17,40,0.00,2,,296
2013-10-6,71,56,41,35,30,27,68,43,21,30.14,30.07,30.03,10,10,10,25,15,31,0.00,0,,312
2013-10-7,81,59,37,41,38,34,89,53,22,30.18,30.07,29.95,10,10,10,12,7,20,0.00,0,,225
2013-10-8,84,68,52,43,39,34,64,40,18,29.94,29.83,29.73,10,10,10,23,12,34,0.00,0,,175
2013-10-9,84,70,55,46,43,42,62,42,24,29.84,29.79,29.76,10,10,10,20,13,29,0.00,0,,176
2013-10-10,86,69,51,56,51,46,96,61,28,29.85,29.74,29.57,10,9,2,29,13,43,0.34,2,Rain-Thunderstorm,176
2013-10-11,73,60,46,58,46,39,93,63,34,30.00,29.73,29.56,10,10,10,22,12,30,0.00,1,,272
2013-10-12,67,54,40,43,39,33,93,64,30,30.29,30.17,30.01,10,10,10,12,5,,0.00,1,,41
2013-10-13,70,53,35,51,39,33,93,63,30,30.37,30.25,30.13,10,10,10,17,6,29,T,3,,127
2013-10-14,73,59,44,64,54,38,100,83,48,30.13,29.87,29.69,10,8,1,24,15,37,0.30,6,Rain-Thunderstorm,197
2013-10-15,56,45,34,38,33,31,85,65,43,30.25,30.15,29.99,10,10,10,24,14,32,0.00,1,,316
2013-10-16,58,45,31,36,32,29,92,69,39,30.25,30.14,30.01,10,10,10,15,6,21,0.00,0,,269
2013-10-17,61,48,34,36,34,31,89,67,39,30.15,30.05,29.98,10,10,10,15,9,23,0.00,0,,331
2013-10-18,52,42,32,39,35,30,100,87,46,30.24,30.16,30.10,10,7,1,14,6,28,0.26,6,Rain-Snow,303
2013-10-19,68,50,32,38,32,29,92,65,24,30.14,30.00,29.88,10,10,10,14,8,26,0.00,0,,267
2013-10-20,66,50,34,41,36,32,89,63,38,30.08,29.90,29.80,10,10,10,16,7,24,0.00,1,,322
2013-10-21,64,47,29,40,33,27,92,65,31,30.19,30.10,30.02,10,10,10,14,5,21,0.00,1,,283
2013-10-22,69,55,40,42,39,36,89,59,34,30.13,30.06,30.01,10,10,10,18,8,23,0.00,2,,317
2013-10-23,73,53,33,41,37,32,96,67,29,30.24,30.12,30.02,10,10,10,15,6,24,0.00,0,,40
2013-10-24,52,41,30,37,33,29,100,74,47,30.44,30.38,30.26,10,10,10,9,3,,0.00,3,,89
2013-10-25,61,47,33,37,32,28,89,62,37,30.41,30.27,30.11,10,10,10,18,6,26,0.00,0,,200
2013-10-26,62,47,32,39,32,27,93,63,27,30.31,30.21,30.09,10,10,10,14,7,22,0.00,0,,337
2013-10-27,78,55,31,35,32,27,85,49,19,30.17,29.95,29.80,10,10,10,16,7,23,0.00,0,,217
2013-10-28,56,48,39,48,41,31,100,77,47,30.04,29.98,29.82,10,8,2,15,8,22,0.05,5,Rain,47
2013-10-29,47,44,41,46,44,39,100,97,92,30.06,29.99,29.96,10,4,1,15,8,21,0.10,8,Rain,347
2013-10-30,51,43,34,43,40,33,100,91,67,29.99,29.91,29.81,10,8,2,10,6,,0.00,7,,352
2013-10-31,64,49,34,40,34,27,100,65,26,29.82,29.74,29.66,10,9,6,25,9,37,0.00,2,,291